Alpine, Texas
Current Conditions -  °F | °C
As of 9:35 AM on Sunday 21 Dec 2014 (Local Time) from KE38 Reporting Station
Clear Clear  
Wind Chill: 44°   Ceiling: Unl
Heat Index: 49°   Visibility: 10mi
Dew Point: 24°   Wind: 14mph
Humidity: 38%   Direction: 200°SSW
Pressure: 30.11"   Gusts: NA
Location:  30.36°N, 103.66°W
Report Text: KE38 211535Z AUTO 20012KT 10SM CLR 10/M04 A3011 RMK AO2 T00961042
Loading
Personal Weather Stations






























Interactive Weather Map New forecast layout! Learn more

10-Day Weather Forecast

Advertisements
Track Severe Weather on mobile